sensor_id;sensor_type;location;lat;lon;timestamp;P1;durP1;ratioP1;P2;durP2;ratioP2
54145;SDS011;65909;49.422;7.738;2023-04-07T00:01:22;24.45;;;11.90;;
54145;SDS011;65909;49.422;7.738;2023-04-07T00:03:47;23.63;;;12.23;;
54145;SDS011;65909;49.422;7.738;2023-04-07T00:06:12;22.00;;;12.23;;
54145;SDS011;65909;49.422;7.738;2023-04-07T00:08:38;21.38;;;12.85;;
54145;SDS011;65909;49.422;7.738;2023-04-07T00:11:03;21.35;;;12.93;;
54145;SDS011;65909;49.422;7.738;2023-04-07T00:13:29;23.33;;;12.35;;
54145;SDS011;65909;49.422;7.738;2023-04-07T00:15:55;21.00;;;12.50;;
54145;SDS011;65909;49.422;7.738;2023-04-07T00:18:20;20.90;;;12.95;;
54145;SDS011;65909;49.422;7.738;2023-04-07T00:20:46;24.17;;;12.55;;
54145;SDS011;65909;49.422;7.738;2023-04-07T00:23:11;21.58;;;12.48;;
54145;SDS011;65909;49.422;7.738;2023-04-07T00:25:36;22.17;;;12.82;;
54145;SDS011;65909;49.422;7.738;2023-04-07T00:28:02;25.75;;;13.32;;
54145;SDS011;65909;49.422;7.738;2023-04-07T00:30:27;22.05;;;13.63;;
54145;SDS011;65909;49.422;7.738;2023-04-07T00:32:52;24.17;;;13.52;;
54145;SDS011;65909;49.422;7.738;2023-04-07T00:35:18;25.48;;;13.60;;
54145;SDS011;65909;49.422;7.738;2023-04-07T00:37:43;25.38;;;13.10;;
54145;SDS011;65909;49.422;7.738;2023-04-07T00:40:09;23.52;;;12.85;;
54145;SDS011;65909;49.422;7.738;2023-04-07T00:42:34;24.80;;;14.07;;
54145;SDS011;65909;49.422;7.738;2023-04-07T00:45:00;22.50;;;12.15;;
54145;SDS011;65909;49.422;7.738;2023-04-07T00:47:25;23.92;;;12.02;;
54145;SDS011;65909;49.422;7.738;2023-04-07T00:49:51;22.95;;;13.10;;
54145;SDS011;65909;49.422;7.738;2023-04-07T00:52:16;19.25;;;11.68;;
54145;SDS011;65909;49.422;7.738;2023-04-07T00:54:43;22.40;;;12.50;;
54145;SDS011;65909;49.422;7.738;2023-04-07T00:57:09;22.50;;;13.27;;
54145;SDS011;65909;49.422;7.738;2023-04-07T00:59:35;19.85;;;12.02;;
54145;SDS011;65909;49.422;7.738;2023-04-07T01:02:02;22.95;;;12.32;;
54145;SDS011;65909;49.422;7.738;2023-04-07T01:07:00;17.95;;;12.10;;
54145;SDS011;65909;49.422;7.738;2023-04-07T01:09:34;20.88;;;11.25;;
54145;SDS011;65909;49.422;7.738;2023-04-07T02:14:23;24.42;;;12.57;;
54145;SDS011;65909;49.422;7.738;2023-04-07T02:16:49;18.90;;;11.38;;
54145;SDS011;65909;49.422;7.738;2023-04-07T02:19:16;18.23;;;10.63;;
54145;SDS011;65909;49.422;7.738;2023-04-07T02:21:42;21.77;;;10.45;;
54145;SDS011;65909;49.422;7.738;2023-04-07T02:24:10;16.45;;;9.70;;
54145;SDS011;65909;49.422;7.738;2023-04-07T02:26:35;15.88;;;10.00;;
54145;SDS011;65909;49.422;7.738;2023-04-07T02:29:01;16.27;;;9.40;;
54145;SDS011;65909;49.422;7.738;2023-04-07T02:31:27;17.10;;;9.38;;
54145;SDS011;65909;49.422;7.738;2023-04-07T02:33:53;17.20;;;9.13;;
54145;SDS011;65909;49.422;7.738;2023-04-07T02:36:18;21.50;;;10.35;;
54145;SDS011;65909;49.422;7.738;2023-04-07T02:38:44;14.68;;;8.88;;
54145;SDS011;65909;49.422;7.738;2023-04-07T02:41:09;19.20;;;9.75;;
54145;SDS011;65909;49.422;7.738;2023-04-07T02:43:35;19.20;;;10.38;;
54145;SDS011;65909;49.422;7.738;2023-04-07T02:46:00;17.08;;;9.98;;
54145;SDS011;65909;49.422;7.738;2023-04-07T02:48:25;17.42;;;10.13;;
54145;SDS011;65909;49.422;7.738;2023-04-07T02:50:51;16.45;;;9.48;;
54145;SDS011;65909;49.422;7.738;2023-04-07T02:53:16;19.70;;;9.13;;
54145;SDS011;65909;49.422;7.738;2023-04-07T02:55:41;16.02;;;9.57;;
54145;SDS011;65909;49.422;7.738;2023-04-07T02:58:07;17.15;;;10.90;;
54145;SDS011;65909;49.422;7.738;2023-04-07T03:00:33;16.83;;;9.30;;
54145;SDS011;65909;49.422;7.738;2023-04-07T03:02:58;16.90;;;9.45;;
54145;SDS011;65909;49.422;7.738;2023-04-07T03:05:23;17.73;;;9.52;;
54145;SDS011;65909;49.422;7.738;2023-04-07T03:07:49;17.52;;;10.65;;
54145;SDS011;65909;49.422;7.738;2023-04-07T03:10:14;15.88;;;10.45;;
54145;SDS011;65909;49.422;7.738;2023-04-07T03:12:40;16.27;;;9.73;;
54145;SDS011;65909;49.422;7.738;2023-04-07T03:15:05;15.77;;;9.23;;
54145;SDS011;65909;49.422;7.738;2023-04-07T03:17:32;18.83;;;10.57;;
54145;SDS011;65909;49.422;7.738;2023-04-07T03:19:57;15.40;;;9.27;;
54145;SDS011;65909;49.422;7.738;2023-04-07T03:22:22;15.18;;;9.25;;
54145;SDS011;65909;49.422;7.738;2023-04-07T03:24:48;15.30;;;9.95;;
54145;SDS011;65909;49.422;7.738;2023-04-07T03:27:13;17.60;;;9.18;;
54145;SDS011;65909;49.422;7.738;2023-04-07T03:29:40;14.95;;;9.68;;
54145;SDS011;65909;49.422;7.738;2023-04-07T03:32:05;14.45;;;8.82;;
54145;SDS011;65909;49.422;7.738;2023-04-07T03:34:31;19.90;;;10.30;;
54145;SDS011;65909;49.422;7.738;2023-04-07T03:36:56;17.08;;;10.10;;
54145;SDS011;65909;49.422;7.738;2023-04-07T03:39:21;17.20;;;9.30;;
54145;SDS011;65909;49.422;7.738;2023-04-07T03:41:47;16.40;;;9.45;;
54145;SDS011;65909;49.422;7.738;2023-04-07T03:44:12;15.82;;;9.00;;
54145;SDS011;65909;49.422;7.738;2023-04-07T03:46:37;17.73;;;9.93;;
54145;SDS011;65909;49.422;7.738;2023-04-07T03:49:03;15.48;;;8.95;;
54145;SDS011;65909;49.422;7.738;2023-04-07T03:51:28;15.23;;;9.10;;
54145;SDS011;65909;49.422;7.738;2023-04-07T03:53:54;18.80;;;10.68;;
54145;SDS011;65909;49.422;7.738;2023-04-07T03:56:19;16.75;;;9.50;;
54145;SDS011;65909;49.422;7.738;2023-04-07T03:58:45;17.50;;;9.80;;
54145;SDS011;65909;49.422;7.738;2023-04-07T04:01:10;18.20;;;10.40;;
54145;SDS011;65909;49.422;7.738;2023-04-07T04:03:36;16.30;;;9.38;;
54145;SDS011;65909;49.422;7.738;2023-04-07T04:06:01;17.90;;;9.57;;
54145;SDS011;65909;49.422;7.738;2023-04-07T04:08:27;13.73;;;9.45;;
54145;SDS011;65909;49.422;7.738;2023-04-07T04:10:53;14.35;;;9.05;;
54145;SDS011;65909;49.422;7.738;2023-04-07T04:13:18;14.73;;;8.82;;
54145;SDS011;65909;49.422;7.738;2023-04-07T04:15:44;15.95;;;8.75;;
54145;SDS011;65909;49.422;7.738;2023-04-07T04:18:09;17.65;;;9.70;;
54145;SDS011;65909;49.422;7.738;2023-04-07T04:20:34;13.30;;;8.60;;
54145;SDS011;65909;49.422;7.738;2023-04-07T04:23:01;16.17;;;9.63;;
54145;SDS011;65909;49.422;7.738;2023-04-07T04:25:26;17.27;;;9.70;;
54145;SDS011;65909;49.422;7.738;2023-04-07T04:27:52;16.13;;;9.65;;
54145;SDS011;65909;49.422;7.738;2023-04-07T04:30:17;16.60;;;9.95;;
54145;SDS011;65909;49.422;7.738;2023-04-07T04:32:42;14.13;;;8.27;;
54145;SDS011;65909;49.422;7.738;2023-04-07T04:35:08;15.43;;;8.80;;
54145;SDS011;65909;49.422;7.738;2023-04-07T04:37:33;16.65;;;9.40;;
54145;SDS011;65909;49.422;7.738;2023-04-07T04:39:59;15.75;;;8.73;;
54145;SDS011;65909;49.422;7.738;2023-04-07T04:42:24;15.50;;;9.60;;
54145;SDS011;65909;49.422;7.738;2023-04-07T04:44:51;16.65;;;9.70;;
54145;SDS011;65909;49.422;7.738;2023-04-07T04:47:17;15.30;;;8.65;;
54145;SDS011;65909;49.422;7.738;2023-04-07T04:49:42;17.48;;;10.20;;
54145;SDS011;65909;49.422;7.738;2023-04-07T04:52:08;16.08;;;9.55;;
54145;SDS011;65909;49.422;7.738;2023-04-07T04:54:33;16.02;;;9.52;;
54145;SDS011;65909;49.422;7.738;2023-04-07T04:56:58;14.10;;;9.68;;
54145;SDS011;65909;49.422;7.738;2023-04-07T04:59:25;17.05;;;9.55;;
54145;SDS011;65909;49.422;7.738;2023-04-07T05:01:51;15.55;;;9.13;;
54145;SDS011;65909;49.422;7.738;2023-04-07T05:04:16;16.90;;;9.43;;
54145;SDS011;65909;49.422;7.738;2023-04-07T05:06:41;17.90;;;9.25;;
54145;SDS011;65909;49.422;7.738;2023-04-07T05:09:07;15.82;;;9.25;;
54145;SDS011;65909;49.422;7.738;2023-04-07T05:11:33;19.83;;;10.25;;
54145;SDS011;65909;49.422;7.738;2023-04-07T05:13:58;15.80;;;8.88;;
54145;SDS011;65909;49.422;7.738;2023-04-07T05:16:23;15.95;;;9.07;;
54145;SDS011;65909;49.422;7.738;2023-04-07T05:18:49;22.27;;;10.32;;
54145;SDS011;65909;49.422;7.738;2023-04-07T05:21:14;17.45;;;9.15;;
54145;SDS011;65909;49.422;7.738;2023-04-07T05:23:40;20.17;;;10.15;;
54145;SDS011;65909;49.422;7.738;2023-04-07T05:26:05;15.98;;;9.27;;
54145;SDS011;65909;49.422;7.738;2023-04-07T05:28:31;16.08;;;9.50;;
54145;SDS011;65909;49.422;7.738;2023-04-07T05:30:56;15.30;;;9.60;;
54145;SDS011;65909;49.422;7.738;2023-04-07T05:33:21;17.75;;;10.02;;
54145;SDS011;65909;49.422;7.738;2023-04-07T05:35:47;16.35;;;8.73;;
54145;SDS011;65909;49.422;7.738;2023-04-07T05:38:12;18.13;;;9.77;;
54145;SDS011;65909;49.422;7.738;2023-04-07T05:40:38;15.35;;;9.73;;
54145;SDS011;65909;49.422;7.738;2023-04-07T05:43:04;15.45;;;9.75;;
54145;SDS011;65909;49.422;7.738;2023-04-07T05:45:30;16.63;;;9.77;;
54145;SDS011;65909;49.422;7.738;2023-04-07T05:47:55;16.45;;;9.50;;
54145;SDS011;65909;49.422;7.738;2023-04-07T05:50:20;13.88;;;8.82;;
54145;SDS011;65909;49.422;7.738;2023-04-07T05:52:46;16.35;;;8.85;;
54145;SDS011;65909;49.422;7.738;2023-04-07T05:55:11;19.60;;;9.55;;
54145;SDS011;65909;49.422;7.738;2023-04-07T05:57:36;16.95;;;9.73;;
54145;SDS011;65909;49.422;7.738;2023-04-07T06:00:02;18.55;;;9.30;;
54145;SDS011;65909;49.422;7.738;2023-04-07T06:02:28;16.33;;;9.30;;
54145;SDS011;65909;49.422;7.738;2023-04-07T06:04:54;17.02;;;10.15;;
54145;SDS011;65909;49.422;7.738;2023-04-07T06:07:20;18.25;;;9.18;;
54145;SDS011;65909;49.422;7.738;2023-04-07T06:09:45;16.17;;;9.52;;
54145;SDS011;65909;49.422;7.738;2023-04-07T06:12:11;16.95;;;9.95;;
54145;SDS011;65909;49.422;7.738;2023-04-07T06:14:36;17.83;;;10.18;;
54145;SDS011;65909;49.422;7.738;2023-04-07T06:17:02;17.33;;;9.73;;
54145;SDS011;65909;49.422;7.738;2023-04-07T06:19:28;16.48;;;9.63;;
54145;SDS011;65909;49.422;7.738;2023-04-07T06:21:53;16.40;;;9.65;;
54145;SDS011;65909;49.422;7.738;2023-04-07T06:24:18;15.65;;;9.02;;
54145;SDS011;65909;49.422;7.738;2023-04-07T06:26:46;18.02;;;10.45;;
54145;SDS011;65909;49.422;7.738;2023-04-07T06:29:12;15.60;;;8.60;;
54145;SDS011;65909;49.422;7.738;2023-04-07T06:31:38;19.27;;;9.50;;
54145;SDS011;65909;49.422;7.738;2023-04-07T06:34:03;16.52;;;8.63;;
54145;SDS011;65909;49.422;7.738;2023-04-07T06:36:28;14.70;;;9.48;;
54145;SDS011;65909;49.422;7.738;2023-04-07T06:38:54;15.50;;;8.20;;
54145;SDS011;65909;49.422;7.738;2023-04-07T06:41:20;14.30;;;9.07;;
54145;SDS011;65909;49.422;7.738;2023-04-07T06:43:45;15.25;;;8.60;;
54145;SDS011;65909;49.422;7.738;2023-04-07T06:46:11;20.63;;;9.63;;
54145;SDS011;65909;49.422;7.738;2023-04-07T06:48:37;16.67;;;9.82;;
54145;SDS011;65909;49.422;7.738;2023-04-07T06:51:02;14.05;;;8.38;;
54145;SDS011;65909;49.422;7.738;2023-04-07T06:53:28;15.77;;;9.52;;
54145;SDS011;65909;49.422;7.738;2023-04-07T06:56:03;15.52;;;7.97;;
54145;SDS011;65909;49.422;7.738;2023-04-07T06:58:33;15.43;;;9.48;;
54145;SDS011;65909;49.422;7.738;2023-04-07T07:00:59;15.40;;;9.30;;
54145;SDS011;65909;49.422;7.738;2023-04-07T07:03:25;14.52;;;9.02;;
54145;SDS011;65909;49.422;7.738;2023-04-07T07:05:52;15.25;;;7.93;;
54145;SDS011;65909;49.422;7.738;2023-04-07T07:08:18;17.08;;;8.88;;
54145;SDS011;65909;49.422;7.738;2023-04-07T07:10:43;13.88;;;8.43;;
54145;SDS011;65909;49.422;7.738;2023-04-07T07:13:09;14.82;;;8.65;;
54145;SDS011;65909;49.422;7.738;2023-04-07T07:15:34;15.50;;;9.18;;
54145;SDS011;65909;49.422;7.738;2023-04-07T07:18:00;16.48;;;8.65;;
54145;SDS011;65909;49.422;7.738;2023-04-07T07:20:25;13.23;;;8.30;;
54145;SDS011;65909;49.422;7.738;2023-04-07T07:22:51;15.35;;;8.60;;
54145;SDS011;65909;49.422;7.738;2023-04-07T07:25:17;15.10;;;8.68;;
54145;SDS011;65909;49.422;7.738;2023-04-07T07:27:42;16.90;;;8.80;;
54145;SDS011;65909;49.422;7.738;2023-04-07T07:30:07;13.98;;;8.00;;
54145;SDS011;65909;49.422;7.738;2023-04-07T07:32:33;14.43;;;7.80;;
54145;SDS011;65909;49.422;7.738;2023-04-07T07:34:58;14.02;;;8.68;;
54145;SDS011;65909;49.422;7.738;2023-04-07T07:37:24;14.57;;;9.05;;
54145;SDS011;65909;49.422;7.738;2023-04-07T07:39:49;16.83;;;8.90;;
54145;SDS011;65909;49.422;7.738;2023-04-07T07:42:15;16.25;;;8.63;;
54145;SDS011;65909;49.422;7.738;2023-04-07T07:44:40;14.18;;;8.52;;
54145;SDS011;65909;49.422;7.738;2023-04-07T07:47:05;18.88;;;9.48;;
54145;SDS011;65909;49.422;7.738;2023-04-07T07:49:31;14.88;;;7.53;;
54145;SDS011;65909;49.422;7.738;2023-04-07T07:51:56;15.68;;;9.52;;
54145;SDS011;65909;49.422;7.738;2023-04-07T07:54:23;13.65;;;8.32;;
54145;SDS011;65909;49.422;7.738;2023-04-07T07:56:49;16.83;;;9.70;;
54145;SDS011;65909;49.422;7.738;2023-04-07T07:59:14;17.15;;;9.45;;
54145;SDS011;65909;49.422;7.738;2023-04-07T08:01:40;13.52;;;7.95;;
54145;SDS011;65909;49.422;7.738;2023-04-07T08:04:05;14.88;;;8.75;;
54145;SDS011;65909;49.422;7.738;2023-04-07T08:06:30;13.68;;;8.63;;
54145;SDS011;65909;49.422;7.738;2023-04-07T08:08:56;15.18;;;9.10;;
54145;SDS011;65909;49.422;7.738;2023-04-07T08:11:21;15.48;;;8.48;;
54145;SDS011;65909;49.422;7.738;2023-04-07T08:13:47;14.40;;;8.15;;
54145;SDS011;65909;49.422;7.738;2023-04-07T08:16:12;14.95;;;8.30;;
54145;SDS011;65909;49.422;7.738;2023-04-07T08:18:37;14.75;;;9.48;;
54145;SDS011;65909;49.422;7.738;2023-04-07T08:21:03;15.82;;;9.27;;
54145;SDS011;65909;49.422;7.738;2023-04-07T08:23:30;17.15;;;9.10;;
54145;SDS011;65909;49.422;7.738;2023-04-07T08:25:55;15.52;;;8.90;;
54145;SDS011;65909;49.422;7.738;2023-04-07T08:28:21;16.30;;;9.18;;
54145;SDS011;65909;49.422;7.738;2023-04-07T08:30:47;16.95;;;9.80;;
54145;SDS011;65909;49.422;7.738;2023-04-07T08:33:12;16.52;;;9.73;;
54145;SDS011;65909;49.422;7.738;2023-04-07T08:35:38;17.83;;;10.10;;
54145;SDS011;65909;49.422;7.738;2023-04-07T08:38:03;14.90;;;8.90;;
54145;SDS011;65909;49.422;7.738;2023-04-07T08:40:29;16.83;;;9.75;;
54145;SDS011;65909;49.422;7.738;2023-04-07T08:42:56;15.30;;;9.52;;
54145;SDS011;65909;49.422;7.738;2023-04-07T08:45:24;18.85;;;9.75;;
54145;SDS011;65909;49.422;7.738;2023-04-07T08:47:51;15.65;;;9.75;;
54145;SDS011;65909;49.422;7.738;2023-04-07T08:50:24;15.38;;;9.38;;
54145;SDS011;65909;49.422;7.738;2023-04-07T08:52:52;15.35;;;10.15;;
54145;SDS011;65909;49.422;7.738;2023-04-07T08:55:19;17.05;;;11.00;;
54145;SDS011;65909;49.422;7.738;2023-04-07T08:57:45;14.88;;;8.80;;
54145;SDS011;65909;49.422;7.738;2023-04-07T09:00:11;13.50;;;8.75;;
54145;SDS011;65909;49.422;7.738;2023-04-07T09:02:38;13.07;;;8.48;;
54145;SDS011;65909;49.422;7.738;2023-04-07T09:05:08;16.13;;;9.88;;
54145;SDS011;65909;49.422;7.738;2023-04-07T09:07:34;18.35;;;9.50;;
54145;SDS011;65909;49.422;7.738;2023-04-07T09:10:01;14.85;;;9.48;;
54145;SDS011;65909;49.422;7.738;2023-04-07T09:12:27;18.38;;;10.43;;
54145;SDS011;65909;49.422;7.738;2023-04-07T09:14:53;17.85;;;9.27;;
54145;SDS011;65909;49.422;7.738;2023-04-07T09:17:19;16.38;;;9.50;;
54145;SDS011;65909;49.422;7.738;2023-04-07T09:19:48;16.02;;;9.73;;
54145;SDS011;65909;49.422;7.738;2023-04-07T09:22:13;18.98;;;10.50;;
54145;SDS011;65909;49.422;7.738;2023-04-07T09:24:41;16.40;;;9.27;;
54145;SDS011;65909;49.422;7.738;2023-04-07T09:27:11;17.17;;;9.38;;
54145;SDS011;65909;49.422;7.738;2023-04-07T09:29:42;18.15;;;10.35;;
54145;SDS011;65909;49.422;7.738;2023-04-07T09:32:09;21.42;;;11.10;;
54145;SDS011;65909;49.422;7.738;2023-04-07T09:34:36;17.15;;;10.60;;
54145;SDS011;65909;49.422;7.738;2023-04-07T09:37:03;21.02;;;11.38;;
54145;SDS011;65909;49.422;7.738;2023-04-07T09:39:30;18.27;;;10.57;;
54145;SDS011;65909;49.422;7.738;2023-04-07T09:41:56;20.02;;;11.80;;
54145;SDS011;65909;49.422;7.738;2023-04-07T09:44:22;26.23;;;13.82;;
54145;SDS011;65909;49.422;7.738;2023-04-07T09:46:55;27.40;;;13.30;;
54145;SDS011;65909;49.422;7.738;2023-04-07T09:49:22;24.65;;;12.82;;
54145;SDS011;65909;49.422;7.738;2023-04-07T09:54:30;29.92;;;13.68;;
54145;SDS011;65909;49.422;7.738;2023-04-07T09:56:58;24.15;;;12.35;;
54145;SDS011;65909;49.422;7.738;2023-04-07T09:59:26;23.63;;;13.27;;
54145;SDS011;65909;49.422;7.738;2023-04-07T10:01:52;26.85;;;13.57;;
54145;SDS011;65909;49.422;7.738;2023-04-07T10:04:19;24.42;;;13.02;;
54145;SDS011;65909;49.422;7.738;2023-04-07T10:06:44;24.20;;;12.50;;
54145;SDS011;65909;49.422;7.738;2023-04-07T10:09:11;23.48;;;13.45;;
54145;SDS011;65909;49.422;7.738;2023-04-07T10:11:37;24.95;;;12.88;;
54145;SDS011;65909;49.422;7.738;2023-04-07T10:14:03;27.17;;;13.43;;
54145;SDS011;65909;49.422;7.738;2023-04-07T10:16:29;28.52;;;13.38;;
54145;SDS011;65909;49.422;7.738;2023-04-07T10:18:55;26.65;;;15.52;;
54145;SDS011;65909;49.422;7.738;2023-04-07T10:21:21;28.10;;;13.32;;
54145;SDS011;65909;49.422;7.738;2023-04-07T10:24:03;26.25;;;12.93;;
54145;SDS011;65909;49.422;7.738;2023-04-07T10:26:52;22.63;;;11.45;;
54145;SDS011;65909;49.422;7.738;2023-04-07T10:29:20;23.23;;;11.77;;
54145;SDS011;65909;49.422;7.738;2023-04-07T10:31:48;20.40;;;12.10;;
54145;SDS011;65909;49.422;7.738;2023-04-07T10:34:13;22.42;;;12.38;;
54145;SDS011;65909;49.422;7.738;2023-04-07T10:39:38;23.50;;;11.68;;
54145;SDS011;65909;49.422;7.738;2023-04-07T10:42:04;21.42;;;11.15;;
54145;SDS011;65909;49.422;7.738;2023-04-07T10:47:07;28.73;;;12.68;;
54145;SDS011;65909;49.422;7.738;2023-04-07T10:49:32;23.23;;;13.60;;
54145;SDS011;65909;49.422;7.738;2023-04-07T10:54:36;24.65;;;12.27;;
54145;SDS011;65909;49.422;7.738;2023-04-07T10:59:27;26.70;;;13.32;;
54145;SDS011;65909;49.422;7.738;2023-04-07T11:04:37;24.98;;;12.07;;
54145;SDS011;65909;49.422;7.738;2023-04-07T11:07:04;18.38;;;11.07;;
54145;SDS011;65909;49.422;7.738;2023-04-07T11:09:29;21.25;;;10.77;;
54145;SDS011;65909;49.422;7.738;2023-04-07T11:11:55;24.38;;;11.65;;
54145;SDS011;65909;49.422;7.738;2023-04-07T11:14:28;21.52;;;11.60;;
54145;SDS011;65909;49.422;7.738;2023-04-07T11:16:54;22.92;;;11.82;;
54145;SDS011;65909;49.422;7.738;2023-04-07T11:19:20;23.85;;;12.23;;
54145;SDS011;65909;49.422;7.738;2023-04-07T11:21:46;23.98;;;12.40;;
54145;SDS011;65909;49.422;7.738;2023-04-07T11:24:30;21.85;;;11.60;;
54145;SDS011;65909;49.422;7.738;2023-04-07T11:26:56;21.40;;;11.02;;
54145;SDS011;65909;49.422;7.738;2023-04-07T11:29:28;18.63;;;10.52;;
54145;SDS011;65909;49.422;7.738;2023-04-07T11:31:57;20.73;;;9.90;;
54145;SDS011;65909;49.422;7.738;2023-04-07T11:34:33;20.20;;;10.00;;
54145;SDS011;65909;49.422;7.738;2023-04-07T11:37:19;20.00;;;9.20;;
54145;SDS011;65909;49.422;7.738;2023-04-07T11:39:52;22.25;;;11.40;;
54145;SDS011;65909;49.422;7.738;2023-04-07T11:42:34;18.70;;;10.32;;
54145;SDS011;65909;49.422;7.738;2023-04-07T11:45:04;18.08;;;10.43;;
54145;SDS011;65909;49.422;7.738;2023-04-07T11:47:37;20.65;;;11.00;;
54145;SDS011;65909;49.422;7.738;2023-04-07T11:50:03;18.20;;;10.07;;
54145;SDS011;65909;49.422;7.738;2023-04-07T11:52:42;23.70;;;11.32;;
54145;SDS011;65909;49.422;7.738;2023-04-07T11:55:20;22.30;;;11.45;;
54145;SDS011;65909;49.422;7.738;2023-04-07T11:57:48;16.48;;;10.55;;
54145;SDS011;65909;49.422;7.738;2023-04-07T12:00:15;18.95;;;10.98;;
54145;SDS011;65909;49.422;7.738;2023-04-07T12:02:42;15.30;;;9.57;;
54145;SDS011;65909;49.422;7.738;2023-04-07T12:05:08;17.08;;;9.27;;
54145;SDS011;65909;49.422;7.738;2023-04-07T12:07:34;19.42;;;9.80;;
54145;SDS011;65909;49.422;7.738;2023-04-07T12:12:47;16.05;;;9.55;;
54145;SDS011;65909;49.422;7.738;2023-04-07T12:15:13;18.48;;;9.35;;
54145;SDS011;65909;49.422;7.738;2023-04-07T12:17:42;15.32;;;9.15;;
54145;SDS011;65909;49.422;7.738;2023-04-07T12:20:09;14.18;;;7.95;;
54145;SDS011;65909;49.422;7.738;2023-04-07T12:22:35;12.68;;;7.90;;
54145;SDS011;65909;49.422;7.738;2023-04-07T12:25:01;15.25;;;8.60;;
54145;SDS011;65909;49.422;7.738;2023-04-07T12:27:26;12.52;;;7.70;;
54145;SDS011;65909;49.422;7.738;2023-04-07T12:29:52;13.80;;;7.40;;
54145;SDS011;65909;49.422;7.738;2023-04-07T12:32:17;13.85;;;8.13;;
54145;SDS011;65909;49.422;7.738;2023-04-07T12:34:43;13.40;;;8.23;;
54145;SDS011;65909;49.422;7.738;2023-04-07T12:37:08;15.18;;;8.48;;
54145;SDS011;65909;49.422;7.738;2023-04-07T12:39:34;13.30;;;7.47;;
54145;SDS011;65909;49.422;7.738;2023-04-07T12:41:59;12.23;;;7.30;;
54145;SDS011;65909;49.422;7.738;2023-04-07T12:44:24;13.02;;;7.53;;
54145;SDS011;65909;49.422;7.738;2023-04-07T12:46:50;10.65;;;5.93;;
54145;SDS011;65909;49.422;7.738;2023-04-07T12:49:16;9.02;;;6.05;;
54145;SDS011;65909;49.422;7.738;2023-04-07T12:51:41;11.35;;;6.90;;
54145;SDS011;65909;49.422;7.738;2023-04-07T12:54:06;11.60;;;7.13;;
54145;SDS011;65909;49.422;7.738;2023-04-07T12:56:32;14.43;;;8.48;;
54145;SDS011;65909;49.422;7.738;2023-04-07T12:58:57;12.88;;;8.60;;
54145;SDS011;65909;49.422;7.738;2023-04-07T13:01:22;13.55;;;8.02;;
54145;SDS011;65909;49.422;7.738;2023-04-07T13:03:48;11.77;;;7.45;;
54145;SDS011;65909;49.422;7.738;2023-04-07T13:06:13;14.48;;;8.13;;
54145;SDS011;65909;49.422;7.738;2023-04-07T13:08:39;10.05;;;6.53;;
54145;SDS011;65909;49.422;7.738;2023-04-07T13:11:04;9.30;;;6.18;;
54145;SDS011;65909;49.422;7.738;2023-04-07T13:13:30;12.90;;;7.30;;
54145;SDS011;65909;49.422;7.738;2023-04-07T13:15:56;11.20;;;7.20;;
54145;SDS011;65909;49.422;7.738;2023-04-07T13:18:21;9.15;;;6.43;;
54145;SDS011;65909;49.422;7.738;2023-04-07T13:20:47;10.63;;;6.70;;
54145;SDS011;65909;49.422;7.738;2023-04-07T13:23:12;11.27;;;7.13;;
54145;SDS011;65909;49.422;7.738;2023-04-07T13:25:38;9.85;;;6.25;;
54145;SDS011;65909;49.422;7.738;2023-04-07T13:28:03;9.13;;;5.38;;
54145;SDS011;65909;49.422;7.738;2023-04-07T13:30:29;7.85;;;5.55;;
54145;SDS011;65909;49.422;7.738;2023-04-07T13:32:55;8.27;;;5.50;;
54145;SDS011;65909;49.422;7.738;2023-04-07T13:35:21;9.30;;;5.32;;
54145;SDS011;65909;49.422;7.738;2023-04-07T13:37:46;8.98;;;5.93;;
54145;SDS011;65909;49.422;7.738;2023-04-07T13:40:11;8.88;;;5.88;;
54145;SDS011;65909;49.422;7.738;2023-04-07T13:42:40;9.88;;;5.85;;
54145;SDS011;65909;49.422;7.738;2023-04-07T13:45:05;7.28;;;4.90;;
54145;SDS011;65909;49.422;7.738;2023-04-07T13:47:31;6.65;;;4.80;;
54145;SDS011;65909;49.422;7.738;2023-04-07T13:50:02;6.75;;;4.97;;
54145;SDS011;65909;49.422;7.738;2023-04-07T13:52:28;8.52;;;4.90;;
54145;SDS011;65909;49.422;7.738;2023-04-07T13:54:53;10.25;;;6.03;;
54145;SDS011;65909;49.422;7.738;2023-04-07T13:57:19;6.60;;;5.30;;
54145;SDS011;65909;49.422;7.738;2023-04-07T13:59:47;6.35;;;4.50;;
54145;SDS011;65909;49.422;7.738;2023-04-07T14:02:16;5.82;;;4.35;;
54145;SDS011;65909;49.422;7.738;2023-04-07T14:04:42;6.03;;;4.18;;
54145;SDS011;65909;49.422;7.738;2023-04-07T14:07:07;5.57;;;3.67;;
54145;SDS011;65909;49.422;7.738;2023-04-07T14:09:32;5.07;;;3.47;;
54145;SDS011;65909;49.422;7.738;2023-04-07T14:11:58;5.30;;;3.63;;
54145;SDS011;65909;49.422;7.738;2023-04-07T14:14:23;4.80;;;3.40;;
54145;SDS011;65909;49.422;7.738;2023-04-07T14:16:49;4.78;;;4.10;;
54145;SDS011;65909;49.422;7.738;2023-04-07T14:19:19;6.25;;;3.75;;
54145;SDS011;65909;49.422;7.738;2023-04-07T14:21:46;3.58;;;2.78;;
54145;SDS011;65909;49.422;7.738;2023-04-07T14:24:11;4.95;;;3.60;;
54145;SDS011;65909;49.422;7.738;2023-04-07T14:26:37;4.82;;;3.53;;
54145;SDS011;65909;49.422;7.738;2023-04-07T14:29:02;3.75;;;2.78;;
54145;SDS011;65909;49.422;7.738;2023-04-07T14:31:28;4.75;;;3.60;;
54145;SDS011;65909;49.422;7.738;2023-04-07T14:33:53;5.28;;;3.70;;
54145;SDS011;65909;49.422;7.738;2023-04-07T14:36:19;6.90;;;5.55;;
54145;SDS011;65909;49.422;7.738;2023-04-07T14:38:45;5.45;;;4.13;;
54145;SDS011;65909;49.422;7.738;2023-04-07T14:41:10;5.95;;;3.60;;
54145;SDS011;65909;49.422;7.738;2023-04-07T14:43:37;4.85;;;2.80;;
54145;SDS011;65909;49.422;7.738;2023-04-07T14:46:03;2.88;;;2.45;;
54145;SDS011;65909;49.422;7.738;2023-04-07T14:48:29;2.80;;;2.35;;
54145;SDS011;65909;49.422;7.738;2023-04-07T14:50:54;3.13;;;2.55;;
54145;SDS011;65909;49.422;7.738;2023-04-07T14:53:20;3.53;;;2.70;;
54145;SDS011;65909;49.422;7.738;2023-04-07T14:55:45;3.72;;;2.58;;
54145;SDS011;65909;49.422;7.738;2023-04-07T14:58:10;3.63;;;3.00;;
54145;SDS011;65909;49.422;7.738;2023-04-07T15:00:36;3.85;;;2.58;;
54145;SDS011;65909;49.422;7.738;2023-04-07T15:03:01;4.20;;;3.15;;
54145;SDS011;65909;49.422;7.738;2023-04-07T15:05:28;3.28;;;2.83;;
54145;SDS011;65909;49.422;7.738;2023-04-07T15:07:53;3.42;;;2.70;;
54145;SDS011;65909;49.422;7.738;2023-04-07T15:10:19;3.00;;;2.60;;
54145;SDS011;65909;49.422;7.738;2023-04-07T15:12:44;3.60;;;2.30;;
54145;SDS011;65909;49.422;7.738;2023-04-07T15:15:11;3.40;;;2.70;;
54145;SDS011;65909;49.422;7.738;2023-04-07T15:17:37;4.97;;;3.00;;
54145;SDS011;65909;49.422;7.738;2023-04-07T15:20:02;5.22;;;3.83;;
54145;SDS011;65909;49.422;7.738;2023-04-07T15:22:28;5.10;;;3.80;;
54145;SDS011;65909;49.422;7.738;2023-04-07T15:24:54;6.28;;;4.20;;
54145;SDS011;65909;49.422;7.738;2023-04-07T15:27:20;6.05;;;4.22;;
54145;SDS011;65909;49.422;7.738;2023-04-07T15:29:45;5.25;;;3.70;;
54145;SDS011;65909;49.422;7.738;2023-04-07T15:32:11;4.47;;;3.60;;
54145;SDS011;65909;49.422;7.738;2023-04-07T15:34:36;4.82;;;3.63;;
54145;SDS011;65909;49.422;7.738;2023-04-07T15:37:01;5.03;;;3.97;;
54145;SDS011;65909;49.422;7.738;2023-04-07T15:39:27;4.65;;;3.72;;
54145;SDS011;65909;49.422;7.738;2023-04-07T15:41:52;4.45;;;3.10;;
54145;SDS011;65909;49.422;7.738;2023-04-07T15:44:17;3.60;;;2.70;;
54145;SDS011;65909;49.422;7.738;2023-04-07T15:46:43;3.85;;;2.70;;
54145;SDS011;65909;49.422;7.738;2023-04-07T15:49:08;3.80;;;2.58;;
54145;SDS011;65909;49.422;7.738;2023-04-07T15:51:34;4.05;;;2.30;;